Time;durP1;ratioP1;P1;durP2;ratioP2;P2;SDS_P1;SDS_P2;PMS_P1;PMS_P2;Temp;Humidity;BMP_temperature;BMP_pressure;BME280_temperature;BME280_humidity;BME280_pressure;Samples;Min_cycle;Max_cycle;Signal;HPM_P1;HPM_P2
2021/09/14 00:04:38;;;;;;;8.40;5.57;;;16.40;99.90;;;;;;21168747;28;20077;-76
2021/09/14 00:14:39;;;;;;;11.20;6.57;;;16.30;99.90;;;;;;21167690;28;20646;-76
2021/09/14 00:24:39;;;;;;;12.67;6.50;;;16.30;99.90;;;;;;21167215;28;20042;-76
2021/09/14 00:34:40;;;;;;;9.20;5.87;;;16.20;99.90;;;;;;21166550;28;20054;-76
2021/09/14 00:44:42;;;;;;;9.73;4.70;;;16.10;99.90;;;;;;21165669;28;20062;-76
2021/09/14 00:54:44;;;;;;;8.38;5.13;;;16.10;99.90;;;;;;21146246;28;20051;-76
2021/09/14 01:04:45;;;;;;;7.75;4.68;;;16.10;99.90;;;;;;21145491;28;20035;-76
2021/09/14 01:14:54;;;;;;;9.53;4.80;;;16.00;99.90;;;;;;21163019;28;20401;-76
2021/09/14 01:24:56;;;;;;;11.90;5.05;;;15.90;99.90;;;;;;21143214;28;20115;-76
2021/09/14 01:35:05;;;;;;;9.07;5.15;;;15.40;99.90;;;;;;21143159;28;20054;-76
2021/09/14 01:45:08;;;;;;;6.78;4.93;;;15.20;99.90;;;;;;21142265;28;20039;-76
2021/09/14 01:55:12;;;;;;;7.15;4.82;;;15.50;99.90;;;;;;21141568;28;20035;-76
2021/09/14 02:58:37;;;;;;;10.10;6.03;;;15.20;99.90;;;;;;21138807;28;20035;-76
2021/09/14 03:07:01;;;;;;;11.63;7.00;;;15.10;99.90;;;;;;21136118;28;20062;-76
2021/09/14 03:17:08;;;;;;;10.18;6.65;;;15.10;99.90;;;;;;21138142;28;20027;-76
2021/09/14 03:27:09;;;;;;;10.63;6.73;;;15.00;99.90;;;;;;21138806;28;20066;-76
2021/09/14 03:37:10;;;;;;;10.43;6.77;;;15.00;99.90;;;;;;21137488;28;20469;-76
2021/09/14 03:47:11;;;;;;;10.43;6.80;;;14.90;99.90;;;;;;21164317;28;20092;-76
2021/09/14 03:57:13;;;;;;;12.88;8.07;;;14.80;99.90;;;;;;21168590;28;20040;-76
2021/09/14 04:07:26;;;;;;;11.63;8.15;;;14.60;99.90;;;;;;21161748;28;20489;-76
2021/09/14 04:17:28;;;;;;;12.35;7.80;;;14.60;99.90;;;;;;21149975;28;20158;-76
2021/09/14 04:27:29;;;;;;;13.80;7.50;;;14.60;99.90;;;;;;21132208;28;20504;-76
2021/09/14 04:37:30;;;;;;;10.87;7.60;;;14.70;99.90;;;;;;21144491;28;20028;-76
2021/09/14 04:47:31;;;;;;;16.17;8.00;;;14.70;99.90;;;;;;21072864;28;20067;-76
2021/09/14 04:57:33;;;;;;;12.52;7.65;;;14.60;99.90;;;;;;21061069;28;20060;-76
2021/09/14 05:07:33;;;;;;;12.60;8.07;;;14.60;99.90;;;;;;21061484;28;20082;-76
2021/09/14 05:17:35;;;;;;;15.27;8.57;;;14.40;99.90;;;;;;21059207;28;20028;-76
2021/09/14 05:27:40;;;;;;;12.13;7.80;;;14.40;99.90;;;;;;21043999;28;20643;-76
2021/09/14 05:37:41;;;;;;;10.03;7.13;;;14.50;99.90;;;;;;21077233;28;20129;-76
2021/09/14 05:47:43;;;;;;;8.05;6.75;;;14.90;99.90;;;;;;21058725;28;20063;-77
2021/09/14 05:57:44;;;;;;;12.40;7.88;;;15.00;99.90;;;;;;21067196;28;20040;-77
2021/09/14 06:07:45;;;;;;;14.03;6.87;;;15.30;99.90;;;;;;21056767;28;20081;-77
2021/09/14 06:17:47;;;;;;;13.98;7.20;;;15.50;99.90;;;;;;21057352;28;20039;-78
2021/09/14 06:27:48;;;;;;;13.77;6.80;;;15.90;99.90;;;;;;21104006;28;20429;-76
2021/09/14 06:37:50;;;;;;;13.88;7.57;;;16.30;99.90;;;;;;21124883;28;20551;-77
2021/09/14 06:47:51;;;;;;;11.47;7.57;;;16.40;99.90;;;;;;21138439;27;20493;-77
2021/09/14 06:57:51;;;;;;;10.10;6.67;;;16.80;99.90;;;;;;21156170;28;20269;-77
2021/09/14 07:07:53;;;;;;;8.60;6.40;;;17.40;99.90;;;;;;21157056;28;20035;-77
2021/09/14 07:17:54;;;;;;;19.13;8.27;;;17.70;99.90;;;;;;21160176;28;20432;-78
2021/09/14 07:27:54;;;;;;;8.77;5.80;;;18.10;99.90;;;;;;21172388;28;20030;-77
2021/09/14 07:37:59;;;;;;;8.23;5.60;;;18.50;99.90;;;;;;21172650;28;20027;-77
2021/09/14 07:47:59;;;;;;;11.05;6.13;;;18.90;99.90;;;;;;21182016;28;20038;-77
2021/09/14 07:58:00;;;;;;;10.43;6.40;;;19.20;99.90;;;;;;21169784;28;20024;-78
2021/09/14 08:08:01;;;;;;;10.80;7.13;;;19.20;99.90;;;;;;21169189;28;20030;-77
2021/09/14 08:18:02;;;;;;;12.87;6.93;;;19.30;99.90;;;;;;21168350;28;20036;-77
2021/09/14 08:28:04;;;;;;;10.40;7.17;;;20.10;99.90;;;;;;21166140;28;20113;-78
2021/09/14 08:38:05;;;;;;;11.95;6.28;;;21.50;99.90;;;;;;21166450;28;20067;-78
2021/09/14 08:48:06;;;;;;;10.83;7.20;;;22.80;99.90;;;;;;21165589;28;20028;-78
2021/09/14 08:58:09;;;;;;;9.48;6.90;;;23.50;99.90;;;;;;21146882;28;20028;-77
2021/09/14 09:08:16;;;;;;;9.93;6.80;;;23.50;99.90;;;;;;21164324;28;20444;-77
2021/09/14 09:18:17;;;;;;;11.23;5.90;;;23.10;99.90;;;;;;21163171;28;20027;-77
2021/09/14 09:28:21;;;;;;;;;;;24.60;99.90;;;;;;21181816;28;20028;-78
2021/09/14 09:38:22;;;;;;;10.60;7.35;;;24.70;99.90;;;;;;21181333;28;20373;-78
2021/09/14 09:48:23;;;;;;;8.35;5.78;;;24.60;99.90;;;;;;21151060;28;20066;-78
2021/09/14 09:58:25;;;;;;;11.40;7.18;;;25.30;99.90;;;;;;21190768;28;20028;-78
2021/09/14 10:08:28;;;;;;;9.68;5.85;;;24.40;99.90;;;;;;21190658;28;20027;-78
2021/09/14 10:18:34;;;;;;;12.77;7.47;;;24.50;99.90;;;;;;21193879;28;20027;-78
2021/09/14 10:28:46;;;;;;;11.02;6.15;;;25.00;99.90;;;;;;21206275;28;20027;-78
2021/09/14 10:38:51;;;;;;;8.18;5.85;;;27.10;99.90;;;;;;21161681;28;20024;-77
2021/09/14 10:48:53;;;;;;;8.70;5.80;;;28.20;99.90;;;;;;21157568;28;20642;-77
2021/09/14 10:58:55;;;;;;;13.88;5.63;;;29.40;99.90;;;;;;21174317;28;20575;-78
2021/09/14 11:09:00;;;;;;;14.25;5.57;;;28.20;99.90;;;;;;21173612;28;20024;-78
2021/09/14 11:19:01;;;;;;;6.40;5.10;;;28.50;99.90;;;;;;21172863;28;20027;-77
2021/09/14 11:29:02;;;;;;;8.73;5.28;;;27.50;99.90;;;;;;21172322;28;20055;-77
2021/09/14 11:39:05;;;;;;;7.88;4.50;;;27.40;99.90;;;;;;21171098;28;20477;-78
2021/09/14 11:49:08;;;;;;;7.90;4.80;;;29.70;99.90;;;;;;21168033;27;20055;-77
2021/09/14 11:59:17;;;;;;;8.25;4.47;;;29.20;99.90;;;;;;21160115;28;20752;-78
2021/09/14 12:09:19;;;;;;;11.43;4.97;;;29.00;99.90;;;;;;21224945;27;20058;-77
2021/09/14 12:19:20;;;;;;;5.65;3.83;;;29.10;99.90;;;;;;21232678;27;20485;-79
2021/09/14 12:29:22;;;;;;;5.82;3.63;;;29.70;99.90;;;;;;21198080;27;20055;-80
2021/09/14 12:39:24;;;;;;;6.22;3.65;;;28.40;99.90;;;;;;21169380;28;20023;-80
2021/09/14 12:49:25;;;;;;;6.00;3.33;;;28.40;99.90;;;;;;21149102;28;20124;-79
2021/09/14 12:59:25;;;;;;;4.00;2.95;;;28.60;99.90;;;;;;21165251;28;20035;-79
2021/09/14 13:09:26;;;;;;;7.07;3.13;;;28.90;99.90;;;;;;21135165;28;20110;-77
2021/09/14 13:19:28;;;;;;;4.55;3.47;;;27.70;99.90;;;;;;21153096;27;20054;-79
2021/09/14 13:29:29;;;;;;;8.70;3.97;;;27.00;99.90;;;;;;21155816;28;20036;-79
2021/09/14 13:39:30;;;;;;;4.45;3.40;;;26.40;99.90;;;;;;21133780;28;20031;-80
2021/09/14 13:49:37;;;;;;;5.03;3.43;;;26.50;99.90;;;;;;20972280;28;20405;-81
2021/09/14 13:59:38;;;;;;;5.75;4.25;;;26.60;99.90;;;;;;20886465;28;20072;-80
2021/09/14 14:09:39;;;;;;;6.45;3.42;;;26.40;99.90;;;;;;20886923;28;20029;-78
2021/09/14 14:19:40;;;;;;;9.07;3.28;;;26.00;99.90;;;;;;20885804;28;20048;-81
2021/09/14 14:29:40;;;;;;;;;;;25.30;99.90;;;;;;20888684;28;20033;-81
2021/09/14 14:39:41;;;;;;;11.40;4.63;;;24.70;99.90;;;;;;20869603;28;19916;-79
2021/09/14 14:49:42;;;;;;;5.97;3.20;;;23.90;99.90;;;;;;20815035;28;20032;-78
2021/09/14 14:59:43;;;;;;;10.20;4.03;;;23.60;99.90;;;;;;20778933;28;20037;-78
2021/09/14 15:09:44;;;;;;;5.83;3.53;;;22.80;99.90;;;;;;20766861;28;20034;-79
2021/09/14 15:19:45;;;;;;;11.03;3.53;;;22.80;99.90;;;;;;20806980;28;20034;-79
2021/09/14 15:29:45;;;;;;;5.10;3.73;;;22.90;99.90;;;;;;20768941;28;20040;-75
2021/09/14 15:39:47;;;;;;;6.77;4.23;;;22.90;99.90;;;;;;20753772;28;20030;-78
2021/09/14 15:49:48;;;;;;;12.02;8.00;;;23.20;99.90;;;;;;20839638;28;20032;-77
2021/09/14 15:59:49;;;;;;;6.10;4.37;;;22.80;99.90;;;;;;20842796;28;20030;-79
2021/09/14 16:09:49;;;;;;;5.80;3.93;;;22.40;99.90;;;;;;20839157;28;20029;-79
2021/09/14 16:19:50;;;;;;;5.17;4.27;;;22.70;99.90;;;;;;20840078;28;20412;-77
2021/09/14 16:29:51;;;;;;;7.03;3.90;;;22.60;99.90;;;;;;20840563;28;20017;-78
2021/09/14 16:39:52;;;;;;;;;;;22.40;99.90;;;;;;20840750;28;20034;-77
2021/09/14 16:49:57;;;;;;;4.10;3.45;;;22.10;99.90;;;;;;20830686;28;19918;-77
2021/09/14 17:00:00;;;;;;;15.25;4.30;;;22.50;99.90;;;;;;20784131;28;20053;-77
2021/09/14 17:10:02;;;;;;;9.55;4.50;;;22.60;99.90;;;;;;20781946;28;20064;-79
2021/09/14 17:20:06;;;;;;;8.35;4.45;;;22.40;99.90;;;;;;20789852;28;20029;-77
2021/09/14 17:30:07;;;;;;;12.32;4.95;;;21.40;99.90;;;;;;20781264;28;20052;-77
2021/09/14 17:40:08;;;;;;;8.88;5.40;;;21.30;99.90;;;;;;20784876;28;20034;-79
2021/09/14 17:50:09;;;;;;;8.90;5.30;;;20.50;99.90;;;;;;20775805;28;20072;-77
2021/09/14 18:00:11;;;;;;;6.07;5.03;;;20.00;99.90;;;;;;20749072;28;20034;-77
2021/09/14 18:10:12;;;;;;;6.43;5.00;;;20.00;99.90;;;;;;20724663;28;20304;-77
2021/09/14 18:20:13;;;;;;;10.50;5.70;;;19.60;99.90;;;;;;20725702;28;20119;-78
2021/09/14 18:30:14;;;;;;;7.77;5.20;;;19.50;99.90;;;;;;20742214;28;20053;-78
2021/09/14 18:40:15;;;;;;;8.38;5.30;;;19.40;99.90;;;;;;20750984;28;20129;-80
2021/09/14 18:50:16;;;;;;;9.63;4.83;;;19.80;99.90;;;;;;20828480;28;20091;-79
2021/09/14 19:00:17;;;;;;;11.17;5.47;;;19.50;99.90;;;;;;20827181;28;20021;-79
2021/09/14 19:10:18;;;;;;;7.73;5.20;;;19.60;99.90;;;;;;20840635;28;20232;-77
2021/09/14 19:20:19;;;;;;;;;;;19.40;99.90;;;;;;20829436;28;20034;-79
2021/09/14 19:30:21;;;;;;;13.05;5.20;;;19.50;99.90;;;;;;20825295;28;19909;-78
2021/09/14 19:40:22;;;;;;;11.40;5.27;;;19.40;99.90;;;;;;20825778;28;20043;-79
2021/09/14 19:50:23;;;;;;;;;;;19.30;99.90;;;;;;20823128;28;20033;-83
2021/09/14 20:00:24;;;;;;;12.53;6.23;;;19.30;99.90;;;;;;20845488;28;19959;-78
2021/09/14 20:10:25;;;;;;;8.90;4.80;;;19.10;99.90;;;;;;20853184;28;20034;-83
2021/09/14 20:20:27;;;;;;;7.87;4.93;;;19.20;99.90;;;;;;20866068;28;20035;-80
2021/09/14 20:30:28;;;;;;;10.60;4.90;;;19.00;99.90;;;;;;20839048;28;20404;-77
2021/09/14 20:40:29;;;;;;;8.17;4.63;;;19.20;99.90;;;;;;20850087;28;20021;-78
2021/09/14 20:50:30;;;;;;;6.57;4.75;;;19.00;99.90;;;;;;20822011;28;20439;-79
2021/09/14 21:00:32;;;;;;;7.30;5.27;;;18.90;99.90;;;;;;20840143;28;20034;-77
2021/09/14 21:10:33;;;;;;;14.60;5.22;;;19.00;99.90;;;;;;20827754;28;20041;-78
2021/09/14 21:20:34;;;;;;;10.03;5.03;;;18.90;99.90;;;;;;20820059;28;20033;-77
2021/09/14 21:30:35;;;;;;;16.63;6.67;;;18.70;99.90;;;;;;20826557;28;20415;-77
2021/09/14 21:40:36;;;;;;;9.80;5.20;;;18.90;99.90;;;;;;20825294;28;20037;-77
2021/09/14 21:50:37;;;;;;;5.10;4.00;;;18.80;99.90;;;;;;20825137;28;20131;-78
2021/09/14 22:00:41;;;;;;;8.23;5.30;;;18.60;99.90;;;;;;20824646;28;20029;-78
2021/09/14 22:10:44;;;;;;;12.55;5.93;;;18.50;99.90;;;;;;20840510;28;20033;-78
2021/09/14 22:20:45;;;;;;;8.97;6.07;;;18.30;99.90;;;;;;20839609;28;20065;-78
2021/09/14 22:30:46;;;;;;;12.27;7.43;;;18.20;99.90;;;;;;20841211;28;20496;-77
2021/09/14 22:40:46;;;;;;;10.27;6.03;;;18.10;99.90;;;;;;20848255;28;20064;-79
2021/09/14 22:50:48;;;;;;;9.13;6.70;;;18.00;99.90;;;;;;20834606;28;20156;-79
2021/09/14 23:00:48;;;;;;;13.67;8.10;;;18.20;99.90;;;;;;20815098;28;20496;-79
2021/09/14 23:10:50;;;;;;;;;;;18.00;99.90;;;;;;20804231;28;20068;-78
2021/09/14 23:20:51;;;;;;;12.90;8.27;;;17.90;99.90;;;;;;20828651;28;19901;-79
2021/09/14 23:30:51;;;;;;;17.87;8.37;;;17.90;99.90;;;;;;20867729;28;20041;-79
2021/09/14 23:40:52;;;;;;;42.73;7.63;;;17.80;99.90;;;;;;20896845;28;20045;-79
2021/09/14 23:50:53;;;;;;;13.57;9.27;;;17.90;99.90;;;;;;20876458;28;20029;-81
